Time;durP1;ratioP1;P1;durP2;ratioP2;P2;SDS_P1;SDS_P2;PMS_P1;PMS_P2;Temp;Humidity;BMP_temperature;BMP_pressure;BME280_temperature;BME280_humidity;BME280_pressure;Samples;Min_cycle;Max_cycle;Signal;HPM_P1;HPM_P2
2021/08/13 00:00:15;;;;;;;6.78;2.95;;;;;;;21.67;100.00;95338.66;5055320;28;20380;-63
2021/08/13 00:02:43;;;;;;;9.57;3.28;;;;;;;21.60;100.00;95341.13;5055574;28;20021;-63
2021/08/13 00:05:09;;;;;;;6.15;2.85;;;;;;;21.53;100.00;95338.09;5045857;28;20032;-62
2021/08/13 00:07:38;;;;;;;7.60;3.17;;;;;;;21.44;100.00;95320.97;5042023;28;20029;-63
2021/08/13 00:10:07;;;;;;;10.07;2.92;;;;;;;21.30;100.00;95282.28;5049597;28;20095;-63
2021/08/13 00:12:53;;;;;;;5.80;2.97;;;;;;;21.03;100.00;95286.97;5034304;28;20025;-63
2021/08/13 00:15:18;;;;;;;6.03;2.88;;;;;;;20.79;100.00;95273.13;5026029;28;20052;-63
2021/08/13 00:17:47;;;;;;;7.03;2.97;;;;;;;20.61;100.00;95277.00;5034514;28;20603;-63
2021/08/13 00:20:15;;;;;;;9.43;3.13;;;;;;;20.44;100.00;95272.41;5034555;28;20389;-63
2021/08/13 00:22:43;;;;;;;6.20;2.83;;;;;;;20.30;100.00;95267.13;5034198;28;20079;-63
2021/08/13 00:25:12;;;;;;;7.10;2.88;;;;;;;20.18;100.00;95270.47;5034814;28;20044;-63
2021/08/13 00:27:49;;;;;;;7.00;3.00;;;;;;;20.05;100.00;95285.03;5033228;28;20033;-63
2021/08/13 00:30:15;;;;;;;6.18;3.10;;;;;;;19.97;100.00;95293.97;5034120;28;20036;-63
2021/08/13 00:32:52;;;;;;;4.97;2.95;;;;;;;19.85;100.00;95300.06;5034273;28;20475;-63
2021/08/13 00:35:17;;;;;;;4.78;2.65;;;;;;;19.74;100.00;95306.13;5026131;28;20052;-63
2021/08/13 00:37:43;;;;;;;5.78;2.83;;;;;;;19.62;100.00;95318.41;5050656;28;20025;-63
2021/08/13 00:40:08;;;;;;;8.25;3.08;;;;;;;19.51;100.00;95317.06;5029544;28;20464;-63
2021/08/13 00:42:34;;;;;;;4.47;2.75;;;;;;;19.45;100.00;95323.78;5032668;28;20480;-63
2021/08/13 00:45:04;;;;;;;4.70;2.90;;;;;;;19.39;100.00;95327.72;5052615;28;20116;-63
2021/08/13 00:47:30;;;;;;;6.68;3.00;;;;;;;19.35;100.00;95341.16;5053374;28;20029;-63
2021/08/13 00:49:57;;;;;;;7.95;3.05;;;;;;;19.34;100.00;95334.13;5053531;28;20029;-63
2021/08/13 00:52:32;;;;;;;7.22;2.75;;;;;;;19.38;100.00;95331.56;5053712;28;20021;-63
2021/08/13 00:55:05;;;;;;;5.13;2.70;;;;;;;19.33;100.00;95339.88;5035677;28;20029;-63
2021/08/13 00:57:35;;;;;;;4.93;2.75;;;;;;;19.27;100.00;95341.91;5053129;28;20060;-63
2021/08/13 01:00:06;;;;;;;11.95;3.40;;;;;;;19.21;100.00;95345.06;5053513;28;20021;-63
2021/08/13 01:02:32;;;;;;;6.75;3.15;;;;;;;19.15;100.00;95347.13;5035705;28;20112;-63
2021/08/13 01:05:00;;;;;;;6.00;2.80;;;;;;;19.07;100.00;95356.84;5053410;28;20104;-63
2021/08/13 01:07:28;;;;;;;6.90;2.88;;;;;;;19.01;100.00;95370.88;5024516;28;20025;-63
2021/08/13 01:09:54;;;;;;;6.32;3.03;;;;;;;18.94;100.00;95367.78;5033600;28;20033;-62
2021/08/13 01:12:49;;;;;;;6.20;2.63;;;;;;;18.89;100.00;95371.44;5053280;28;20028;-62
2021/08/13 01:15:19;;;;;;;5.57;3.00;;;;;;;18.88;100.00;95367.09;5034233;28;20435;-63
2021/08/13 01:18:09;;;;;;;5.55;2.92;;;;;;;18.87;100.00;95378.25;5053393;28;20472;-62
2021/08/13 01:21:14;;;;;;;5.82;2.33;;;;;;;18.95;100.00;95366.66;5053183;28;20623;-63
2021/08/13 01:23:49;;;;;;;6.28;2.80;;;;;;;19.13;100.00;95349.38;5035384;28;20048;-63
2021/08/13 01:26:15;;;;;;;9.55;2.83;;;;;;;19.28;100.00;95335.38;5053052;28;20063;-63
2021/08/13 01:28:57;;;;;;;4.75;2.85;;;;;;;19.44;100.00;95313.22;5053138;28;20056;-63
2021/08/13 01:31:24;;;;;;;3.53;2.00;;;;;;;19.57;100.00;95304.19;5053028;28;20076;-62
2021/08/13 01:34:19;;;;;;;8.82;2.60;;;;;;;19.66;100.00;95291.41;5052494;28;20033;-62
2021/08/13 01:36:48;;;;;;;3.65;2.38;;;;;;;19.67;100.00;95285.66;5052654;28;20039;-62
2021/08/13 01:39:18;;;;;;;4.75;2.55;;;;;;;19.64;100.00;95286.28;5052769;28;20122;-63
2021/08/13 01:41:49;;;;;;;5.50;2.70;;;;;;;19.49;100.00;95296.75;5052840;28;20422;-63
2021/08/13 01:44:20;;;;;;;8.00;2.72;;;;;;;19.30;100.00;95316.84;5052544;28;20108;-63
2021/08/13 01:46:48;;;;;;;5.75;2.60;;;;;;;19.13;100.00;95333.06;5052211;28;20040;-62
2021/08/13 01:49:15;;;;;;;6.78;3.00;;;;;;;18.99;100.00;95345.91;5052724;28;20021;-63
2021/08/13 01:51:42;;;;;;;3.70;2.47;;;;;;;18.84;100.00;95349.84;5052634;28;20029;-62
2021/08/13 01:54:09;;;;;;;7.63;2.78;;;;;;;18.70;100.00;95349.94;5043218;28;20380;-63
2021/08/13 01:56:53;;;;;;;4.70;2.63;;;;;;;18.61;100.00;95340.09;5028461;28;20030;-62
2021/08/13 01:59:21;;;;;;;7.13;3.15;;;;;;;18.55;100.00;95347.53;5031073;28;20022;-63
2021/08/13 02:01:47;;;;;;;9.40;2.70;;;;;;;18.53;100.00;95349.75;5032425;28;20034;-62
2021/08/13 02:04:20;;;;;;;8.05;2.90;;;;;;;18.47;100.00;95373.50;5032729;28;20033;-63
2021/08/13 02:06:56;;;;;;;5.97;2.67;;;;;;;18.39;100.00;95389.72;5027729;28;20091;-62
2021/08/13 02:09:34;;;;;;;4.90;2.55;;;;;;;18.29;100.00;95403.50;5032237;28;20068;-63
2021/08/13 02:12:02;;;;;;;5.40;2.75;;;;;;;18.29;100.00;95406.22;5032235;28;20025;-63
2021/08/13 02:14:28;;;;;;;3.88;2.35;;;;;;;18.25;100.00;95414.16;5032098;28;20033;-62
2021/08/13 02:16:55;;;;;;;7.78;2.70;;;;;;;18.19;100.00;95421.59;5031737;28;20036;-62
2021/08/13 02:19:37;;;;;;;6.90;3.15;;;;;;;18.09;100.00;95421.81;5032125;28;20436;-62
2021/08/13 02:22:08;;;;;;;5.33;2.63;;;;;;;18.02;100.00;95426.84;5030174;28;20030;-62
2021/08/13 02:24:43;;;;;;;8.75;2.80;;;;;;;17.94;100.00;95441.13;5031980;28;20095;-62
2021/08/13 02:27:14;;;;;;;5.68;2.80;;;;;;;17.86;100.00;95439.91;5022298;28;20501;-62
2021/08/13 02:29:39;;;;;;;7.97;2.63;;;;;;;17.79;100.00;95453.03;5031935;28;20025;-61
2021/08/13 02:32:05;;;;;;;6.97;2.85;;;;;;;17.71;100.00;95470.03;5030256;28;20029;-62
2021/08/13 02:34:30;;;;;;;8.38;3.00;;;;;;;17.60;100.00;95477.50;5039100;28;20049;-62
2021/08/13 02:37:12;;;;;;;7.78;3.50;;;;;;;17.50;100.00;95474.97;5051378;28;20060;-62
2021/08/13 02:39:51;;;;;;;6.68;2.83;;;;;;;17.42;100.00;95488.41;5044031;28;20026;-62
2021/08/13 02:42:24;;;;;;;4.13;2.65;;;;;;;17.31;100.00;95494.00;5025545;28;20021;-62
2021/08/13 02:44:53;;;;;;;9.07;2.50;;;;;;;17.23;100.00;95502.78;5051594;28;20024;-62
2021/08/13 02:47:24;;;;;;;4.15;2.60;;;;;;;17.14;100.00;95512.69;5051214;28;20017;-62
2021/08/13 02:49:56;;;;;;;7.13;2.83;;;;;;;17.06;100.00;95510.66;5051487;28;20064;-62
2021/08/13 02:52:29;;;;;;;5.65;2.63;;;;;;;17.02;100.00;95518.56;5050976;28;20480;-62
2021/08/13 02:55:00;;;;;;;4.70;2.60;;;;;;;16.97;100.00;95521.34;5051261;28;20107;-62
2021/08/13 02:57:29;;;;;;;8.68;2.70;;;;;;;16.87;100.00;95523.41;5033652;28;20032;-62
2021/08/13 03:00:13;;;;;;;6.32;2.60;;;;;;;16.83;100.00;95527.81;5051470;28;20203;-62
2021/08/13 03:02:39;;;;;;;4.50;2.30;;;;;;;16.78;100.00;95537.59;5051436;28;20376;-62
2021/08/13 03:05:12;;;;;;;5.03;3.03;;;;;;;16.78;100.00;95550.31;5050892;28;20075;-62
2021/08/13 03:07:40;;;;;;;;;;;;;;;16.77;100.00;95556.81;5019975;28;20025;-62
2021/08/13 03:10:08;;;;;;;9.80;2.65;;;;;;;16.77;100.00;95562.22;5047988;28;19921;-62
2021/08/13 03:12:41;;;;;;;7.38;2.88;;;;;;;16.74;100.00;95557.41;5051275;28;20482;-62
2021/08/13 03:15:17;;;;;;;5.80;2.63;;;;;;;16.72;100.00;95568.53;5050833;28;20025;-62
2021/08/13 03:17:44;;;;;;;5.15;2.65;;;;;;;16.72;100.00;95575.84;5033644;28;20431;-62
2021/08/13 03:20:10;;;;;;;7.22;3.30;;;;;;;16.75;100.00;95572.53;5051264;28;20028;-62
2021/08/13 03:22:39;;;;;;;4.55;2.63;;;;;;;16.74;100.00;95585.25;5051204;28;20029;-62
2021/08/13 03:25:07;;;;;;;5.18;2.40;;;;;;;16.70;100.00;95586.94;5050893;28;20075;-62
2021/08/13 03:27:33;;;;;;;7.55;2.75;;;;;;;16.71;100.00;95591.25;5033467;28;20387;-62
2021/08/13 03:29:59;;;;;;;6.35;3.03;;;;;;;16.70;100.00;95591.53;5033209;28;20484;-62
2021/08/13 03:32:38;;;;;;;6.28;2.75;;;;;;;16.73;100.00;95604.50;5051007;28;20039;-62
2021/08/13 03:35:04;;;;;;;7.40;3.28;;;;;;;16.75;100.00;95610.41;5050816;28;20057;-62
2021/08/13 03:37:50;;;;;;;5.07;3.03;;;;;;;16.74;100.00;95611.50;5051122;28;20028;-62
2021/08/13 03:40:17;;;;;;;5.80;3.03;;;;;;;16.73;100.00;95616.13;5051191;28;20016;-62
2021/08/13 03:42:45;;;;;;;5.32;3.30;;;;;;;16.69;100.00;95617.78;5030136;28;20029;-62
2021/08/13 03:45:10;;;;;;;6.00;2.95;;;;;;;16.69;100.00;95620.47;5050808;28;20389;-62
2021/08/13 03:47:45;;;;;;;5.95;3.17;;;;;;;16.68;100.00;95623.47;5050960;28;20070;-62
2021/08/13 03:50:19;;;;;;;5.88;2.92;;;;;;;16.67;100.00;95621.84;5041770;28;20021;-62
2021/08/13 03:52:45;;;;;;;6.65;3.15;;;;;;;16.65;100.00;95630.25;5051144;28;20051;-62
2021/08/13 03:55:15;;;;;;;5.93;2.88;;;;;;;16.62;100.00;95632.75;5036231;28;20592;-62
2021/08/13 03:58:04;;;;;;;7.75;3.05;;;;;;;16.61;100.00;95640.06;5026495;28;20029;-62
2021/08/13 04:00:33;;;;;;;3.72;2.90;;;;;;;16.60;100.00;95645.72;5030978;28;20037;-62
2021/08/13 04:03:00;;;;;;;4.25;2.88;;;;;;;16.53;100.00;95646.88;5032902;28;20362;-62
2021/08/13 04:05:30;;;;;;;8.32;3.63;;;;;;;16.48;100.00;95646.94;5034192;28;20044;-62
2021/08/13 04:07:58;;;;;;;6.72;3.47;;;;;;;16.46;100.00;95649.13;5031524;28;20453;-62
2021/08/13 04:10:26;;;;;;;6.25;3.38;;;;;;;16.44;100.00;95658.63;5034479;28;20021;-62
2021/08/13 04:12:51;;;;;;;4.90;3.22;;;;;;;16.42;100.00;95660.81;5034477;28;20025;-62
2021/08/13 04:15:19;;;;;;;5.68;3.35;;;;;;;16.38;100.00;95663.28;5033911;28;20056;-62
2021/08/13 04:17:52;;;;;;;6.45;3.20;;;;;;;16.36;100.00;95661.94;5030269;28;20038;-61
2021/08/13 04:20:17;;;;;;;5.35;3.60;;;;;;;16.34;100.00;95667.66;5034190;28;20108;-62
2021/08/13 04:22:46;;;;;;;6.72;3.45;;;;;;;16.31;100.00;95676.34;5034411;28;20168;-62
2021/08/13 04:25:11;;;;;;;5.45;2.92;;;;;;;16.33;100.00;95678.75;5025283;28;20079;-62
2021/08/13 04:27:39;;;;;;;4.70;3.10;;;;;;;16.32;100.00;95686.06;5034368;28;20022;-62
2021/08/13 04:30:13;;;;;;;5.82;3.20;;;;;;;16.36;100.00;95672.75;5034242;28;20639;-62
2021/08/13 04:32:41;;;;;;;6.18;3.25;;;;;;;16.39;100.00;95675.72;5029489;28;20033;-62
2021/08/13 04:35:07;;;;;;;8.57;3.53;;;;;;;16.41;100.00;95688.94;5042047;28;20052;-63
2021/08/13 04:37:36;;;;;;;8.63;3.42;;;;;;;16.51;100.00;95681.53;5062055;28;20037;-63
2021/08/13 04:40:02;;;;;;;6.90;3.30;;;;;;;16.56;100.00;95683.38;5054647;28;20025;-63
2021/08/13 04:42:34;;;;;;;7.60;3.75;;;;;;;16.61;100.00;95688.72;5054474;28;20746;-63
2021/08/13 04:45:19;;;;;;;6.45;3.63;;;;;;;16.69;100.00;95681.88;5036662;28;20051;-62
2021/08/13 04:47:44;;;;;;;8.60;3.20;;;;;;;16.74;100.00;95679.13;5054431;28;20035;-63
2021/08/13 04:50:16;;;;;;;8.88;3.47;;;;;;;16.78;100.00;95680.16;5036476;28;20385;-63
2021/08/13 04:52:46;;;;;;;10.45;3.47;;;;;;;16.82;100.00;95683.88;5054358;28;20020;-63
2021/08/13 04:55:25;;;;;;;6.05;3.70;;;;;;;16.84;100.00;95683.63;5054460;28;20105;-63
2021/08/13 04:57:51;;;;;;;8.95;4.20;;;;;;;16.87;100.00;95685.75;5054239;28;20372;-63
2021/08/13 05:00:23;;;;;;;7.63;4.00;;;;;;;16.89;100.00;95678.13;5054309;28;20140;-63
2021/08/13 05:02:48;;;;;;;8.13;3.63;;;;;;;16.93;100.00;95677.28;5054246;28;20029;-63
2021/08/13 05:05:13;;;;;;;6.03;3.28;;;;;;;16.98;100.00;95662.88;5054159;28;20056;-63
2021/08/13 05:07:40;;;;;;;8.52;3.47;;;;;;;17.01;100.00;95676.63;5054193;28;20024;-63
2021/08/13 05:10:16;;;;;;;5.90;3.90;;;;;;;17.06;100.00;95662.22;5036201;28;20291;-62
2021/08/13 05:12:50;;;;;;;10.27;3.88;;;;;;;17.09;100.00;95667.06;5054074;28;20403;-63
2021/08/13 05:15:16;;;;;;;11.02;4.70;;;;;;;17.15;100.00;95670.47;5036369;28;20036;-63
2021/08/13 05:17:41;;;;;;;9.52;5.38;;;;;;;17.18;100.00;95664.50;5054268;28;20017;-63
2021/08/13 05:20:08;;;;;;;10.00;4.97;;;;;;;17.23;100.00;95667.13;5053914;28;20021;-63
2021/08/13 05:22:40;;;;;;;10.13;5.20;;;;;;;17.30;100.00;95673.00;5052214;28;20028;-63
2021/08/13 05:25:10;;;;;;;4.95;3.90;;;;;;;17.39;100.00;95674.75;5053213;28;20060;-63
2021/08/13 05:27:36;;;;;;;5.85;3.22;;;;;;;17.48;100.00;95668.69;5035844;28;20071;-62
2021/08/13 05:30:25;;;;;;;7.70;3.70;;;;;;;17.60;100.00;95666.31;5053461;28;20399;-63
2021/08/13 05:32:52;;;;;;;11.13;3.92;;;;;;;17.71;100.00;95651.53;5053746;28;20104;-63
2021/08/13 05:35:18;;;;;;;6.05;4.05;;;;;;;17.77;100.00;95644.91;5028467;28;20045;-63
2021/08/13 05:37:43;;;;;;;8.60;3.75;;;;;;;17.85;100.00;95641.53;5042172;28;20468;-63
2021/08/13 05:40:15;;;;;;;12.20;4.32;;;;;;;17.92;100.00;95647.38;5053606;28;20025;-62
2021/08/13 05:42:46;;;;;;;9.43;3.80;;;;;;;17.98;100.00;95631.03;5040235;28;20056;-63
2021/08/13 05:45:11;;;;;;;7.25;3.45;;;;;;;18.00;100.00;95631.53;5032339;28;20395;-63
2021/08/13 05:47:38;;;;;;;12.65;3.30;;;;;;;18.05;100.00;95631.44;5049356;28;20100;-63
2021/08/13 05:50:17;;;;;;;5.57;3.50;;;;;;;18.17;100.00;95629.88;5053146;28;20033;-63
2021/08/13 05:52:43;;;;;;;8.85;3.50;;;;;;;18.39;100.00;95623.75;5035439;28;20391;-63
2021/08/13 05:55:12;;;;;;;14.00;4.00;;;;;;;18.66;100.00;95622.16;5053322;28;20025;-63
2021/08/13 05:57:43;;;;;;;6.22;4.03;;;;;;;18.96;100.00;95596.28;5053257;28;20060;-63
2021/08/13 06:00:09;;;;;;;8.57;3.80;;;;;;;19.27;100.00;95582.81;5053302;28;20427;-63
2021/08/13 06:02:41;;;;;;;9.85;3.60;;;;;;;19.49;100.00;95544.00;5034990;28;20476;-63
2021/08/13 06:05:07;;;;;;;;;;;;;;;19.71;100.00;95524.97;5053570;28;20033;-63
2021/08/13 06:07:32;;;;;;;9.45;3.47;;;;;;;19.99;100.00;95503.84;5050303;28;19934;-63
2021/08/13 06:09:57;;;;;;;6.85;3.15;;;;;;;20.27;100.00;95466.31;5043611;28;20440;-63
2021/08/13 06:12:24;;;;;;;6.68;3.55;;;;;;;20.59;100.00;95437.91;5045978;28;20080;-63
2021/08/13 06:14:49;;;;;;;8.65;3.80;;;;;;;20.94;100.00;95408.75;5041051;28;20025;-62
2021/08/13 06:17:14;;;;;;;6.07;3.40;;;;;;;21.28;100.00;95372.50;5032915;28;20446;-63
2021/08/13 06:19:46;;;;;;;6.78;3.70;;;;;;;21.63;100.00;95332.28;5033746;28;20017;-63
2021/08/13 06:22:14;;;;;;;5.45;3.50;;;;;;;21.99;100.00;95323.56;5034265;28;20024;-63
2021/08/13 06:24:47;;;;;;;9.25;4.07;;;;;;;22.37;100.00;95308.22;5050106;28;20079;-63
2021/08/13 06:27:15;;;;;;;;;;;;;;;22.74;100.00;95317.34;5028706;28;20025;-63
2021/08/13 06:29:43;;;;;;;6.53;3.55;;;;;;;23.03;100.00;95325.44;5051385;28;19912;-62
2021/08/13 06:32:11;;;;;;;5.78;3.65;;;;;;;23.21;100.00;95334.22;5034501;28;20025;-63
2021/08/13 06:34:36;;;;;;;5.20;3.65;;;;;;;23.50;100.00;95332.44;5051604;28;20048;-62
2021/08/13 06:37:02;;;;;;;8.00;3.92;;;;;;;23.71;100.00;95355.84;5033826;28;20505;-62
2021/08/13 06:39:30;;;;;;;7.72;3.92;;;;;;;23.97;100.00;95391.03;5051293;28;20158;-62
2021/08/13 06:41:58;;;;;;;8.77;3.72;;;;;;;24.29;100.00;95435.03;5050137;28;20068;-62
2021/08/13 06:44:24;;;;;;;7.43;4.00;;;;;;;24.40;100.00;95451.84;5024819;28;20028;-62
2021/08/13 06:46:49;;;;;;;6.20;3.75;;;;;;;24.46;100.00;95467.69;5049476;28;20033;-63
2021/08/13 06:49:14;;;;;;;5.05;3.53;;;;;;;24.58;100.00;95461.41;5033276;28;20032;-63
2021/08/13 06:51:40;;;;;;;6.63;3.35;;;;;;;24.48;100.00;95481.03;5051698;28;20033;-63
2021/08/13 06:54:05;;;;;;;7.40;3.40;;;;;;;24.26;100.00;95498.69;5051402;28;20035;-63
2021/08/13 06:56:31;;;;;;;6.38;3.60;;;;;;;24.28;100.00;95499.94;5051465;28;20029;-63
2021/08/13 06:58:59;;;;;;;6.55;3.30;;;;;;;24.53;100.00;95478.88;5033147;28;20108;-63
2021/08/13 07:01:24;;;;;;;6.57;3.30;;;;;;;24.72;100.00;95502.13;5033527;28;20029;-63
2021/08/13 07:03:53;;;;;;;7.68;3.85;;;;;;;25.03;100.00;95539.88;5051343;28;20032;-63
2021/08/13 07:06:24;;;;;;;7.13;3.80;;;;;;;25.29;100.00;95533.97;5051405;28;20028;-63
2021/08/13 07:08:58;;;;;;;9.40;3.58;;;;;;;25.55;100.00;95558.25;5044780;28;20029;-63
2021/08/13 07:11:23;;;;;;;8.32;3.83;;;;;;;25.77;100.00;95581.63;5033374;28;20021;-63
2021/08/13 07:13:49;;;;;;;6.32;3.60;;;;;;;25.90;100.00;95625.13;5051294;28;20391;-63
2021/08/13 07:16:17;;;;;;;6.60;3.13;;;;;;;26.02;100.00;95658.00;5049919;28;20037;-63
2021/08/13 07:18:42;;;;;;;8.82;3.65;;;;;;;26.26;100.00;95654.31;5047769;28;20402;-63
2021/08/13 07:21:10;;;;;;;8.70;3.70;;;;;;;26.54;100.00;95626.06;5051324;28;20021;-63
2021/08/13 07:23:41;;;;;;;7.97;3.80;;;;;;;26.38;100.00;95666.47;5051072;28;20029;-63
2021/08/13 07:26:06;;;;;;;7.75;3.78;;;;;;;26.32;100.00;95652.13;5051216;28;20091;-61
2021/08/13 07:28:47;;;;;;;12.50;3.28;;;;;;;26.07;100.00;95669.88;5032798;28;20021;-62
2021/08/13 07:31:15;;;;;;;4.68;3.00;;;;;;;25.92;100.00;95647.50;5051287;28;20052;-61
2021/08/13 07:33:41;;;;;;;6.78;3.40;;;;;;;26.02;100.00;95651.72;5051283;28;20071;-61
2021/08/13 07:36:06;;;;;;;23.92;3.72;;;;;;;26.10;100.00;95661.75;5032989;28;20052;-60
2021/08/13 07:38:40;;;;;;;6.85;3.20;;;;;;;26.35;100.00;95681.63;5035819;28;20025;-58
2021/08/13 07:41:14;;;;;;;4.80;3.53;;;;;;;26.49;100.00;95731.53;5055089;28;20039;-59
2021/08/13 07:43:42;;;;;;;8.00;3.13;;;;;;;26.55;100.00;95779.56;5050063;28;20052;-57
2021/08/13 07:46:13;;;;;;;8.10;3.92;;;;;;;26.76;100.00;95751.06;5033732;28;20021;-58
2021/08/13 07:48:39;;;;;;;6.97;3.15;;;;;;;26.95;100.00;95756.69;5054169;28;20029;-61
2021/08/13 07:51:32;;;;;;;7.28;2.90;;;;;;;27.23;100.00;95788.81;5054929;28;20579;-61
2021/08/13 07:54:08;;;;;;;6.50;2.97;;;;;;;27.50;100.00;95806.41;5054733;28;20111;-60
2021/08/13 07:56:39;;;;;;;8.32;3.35;;;;;;;27.79;100.00;95805.13;5036913;28;20086;-59
2021/08/13 07:59:04;;;;;;;7.97;3.17;;;;;;;27.93;100.00;95817.28;5054174;28;20880;-61
2021/08/13 08:01:33;;;;;;;5.65;3.50;;;;;;;27.96;100.00;95888.16;5037116;28;20037;-62
2021/08/13 08:03:58;;;;;;;6.57;3.10;;;;;;;28.11;100.00;95888.50;5054548;28;20021;-60
2021/08/13 08:06:24;;;;;;;5.68;3.22;;;;;;;28.40;100.00;95845.91;5054488;28;20383;-62
2021/08/13 08:08:55;;;;;;;4.75;3.13;;;;;;;28.64;100.00;95914.53;5039287;28;20471;-61
2021/08/13 08:11:24;;;;;;;4.93;2.83;;;;;;;28.89;100.00;95939.13;5042831;28;20025;-61
2021/08/13 08:13:49;;;;;;;7.53;3.65;;;;;;;28.84;100.00;95962.22;5036397;28;20521;-60
2021/08/13 08:16:15;;;;;;;6.40;3.70;;;;;;;28.76;100.00;95991.59;5054621;28;20029;-61
2021/08/13 08:19:01;;;;;;;9.43;3.50;;;;;;;28.90;100.00;96004.94;5032095;28;20465;-61
2021/08/13 08:21:26;;;;;;;8.85;3.70;;;;;;;29.07;100.00;95987.97;5048953;28;20035;-62
2021/08/13 08:23:51;;;;;;;6.25;3.53;;;;;;;29.19;100.00;95983.47;5038768;28;20476;-62
2021/08/13 08:26:17;;;;;;;7.93;3.78;;;;;;;29.39;100.00;96005.19;5054208;28;20113;-62
2021/08/13 08:28:45;;;;;;;9.70;4.25;;;;;;;29.56;100.00;96017.00;5053842;28;20025;-62
2021/08/13 08:31:10;;;;;;;5.80;3.28;;;;;;;29.68;100.00;96102.44;5054280;28;20033;-62
2021/08/13 08:33:36;;;;;;;10.48;3.78;;;;;;;29.62;100.00;96125.94;5054028;28;20075;-61
2021/08/13 08:36:05;;;;;;;5.70;2.97;;;;;;;29.91;100.00;96153.00;5035858;28;20049;-61
2021/08/13 08:38:30;;;;;;;8.15;3.30;;;;;;;29.90;100.00;96154.16;5053622;28;20024;-61
2021/08/13 08:40:55;;;;;;;7.43;3.40;;;;;;;30.05;100.00;96162.75;5035898;28;20035;-60
2021/08/13 08:43:26;;;;;;;8.40;3.38;;;;;;;30.25;100.00;96164.34;5054008;28;20116;-61
2021/08/13 08:45:57;;;;;;;8.18;3.22;;;;;;;30.50;99.61;96176.69;5053889;28;20095;-60
2021/08/13 08:48:39;;;;;;;5.53;3.17;;;;;;;30.45;92.26;96210.16;5052832;28;20025;-61
2021/08/13 08:51:06;;;;;;;5.13;2.92;;;;;;;29.98;91.01;96218.66;5053648;28;20027;-60
2021/08/13 08:53:37;;;;;;;8.48;3.35;;;;;;;30.25;95.10;96206.59;5036033;28;20037;-61
2021/08/13 08:56:03;;;;;;;8.88;3.30;;;;;;;30.37;95.81;96213.94;5053692;28;20079;-61
2021/08/13 08:58:31;;;;;;;6.55;3.10;;;;;;;30.43;92.23;96218.03;5053168;28;20025;-62
2021/08/13 09:00:57;;;;;;;8.82;3.17;;;;;;;30.32;92.54;96222.53;5053647;28;20486;-61
2021/08/13 09:03:26;;;;;;;5.97;3.28;;;;;;;30.12;94.93;96223.72;5053592;28;20017;-62
2021/08/13 09:06:00;;;;;;;7.10;3.35;;;;;;;29.80;99.67;96200.91;5053319;28;20448;-62
2021/08/13 09:08:26;;;;;;;9.30;3.50;;;;;;;29.69;99.78;96215.28;5035076;28;20476;-62
2021/08/13 09:10:59;;;;;;;8.65;3.53;;;;;;;29.71;100.00;96193.63;5047034;28;20064;-62
2021/08/13 09:13:25;;;;;;;6.32;3.20;;;;;;;29.88;100.00;96195.16;5053315;28;20032;-62
2021/08/13 09:15:52;;;;;;;4.65;3.00;;;;;;;30.20;96.66;96217.97;5035318;28;20035;-62
2021/08/13 09:18:23;;;;;;;8.65;2.95;;;;;;;30.51;97.50;96216.22;5064384;28;20455;-62
2021/08/13 09:20:51;;;;;;;5.55;2.80;;;;;;;30.76;96.56;96219.44;5053450;28;20025;-62
2021/08/13 09:23:43;;;;;;;5.30;3.15;;;;;;;30.61;96.72;96218.38;5053037;28;20079;-61
2021/08/13 09:26:23;;;;;;;6.40;3.22;;;;;;;30.63;94.86;96226.28;5053209;28;20032;-62
2021/08/13 09:29:04;;;;;;;10.32;3.78;;;;;;;30.59;96.33;96224.25;5052480;28;20083;-62
2021/08/13 09:31:51;;;;;;;8.43;3.22;;;;;;;30.54;97.28;96229.28;5035623;28;20039;-62
2021/08/13 09:34:17;;;;;;;7.78;3.22;;;;;;;30.69;95.50;96227.59;5052829;28;20130;-63
2021/08/13 09:36:55;;;;;;;6.25;2.95;;;;;;;30.76;97.15;96228.56;5053131;28;20559;-62
2021/08/13 09:39:31;;;;;;;7.30;3.17;;;;;;;30.45;99.13;96218.44;5052477;28;20024;-62
2021/08/13 09:42:09;;;;;;;8.07;3.92;;;;;;;30.29;98.65;96220.53;5034902;28;20029;-62
2021/08/13 09:44:40;;;;;;;5.35;3.25;;;;;;;30.09;100.00;96216.94;5052615;28;20037;-63
2021/08/13 09:47:08;;;;;;;4.93;3.38;;;;;;;29.98;100.00;96216.69;5033957;28;20412;-62
2021/08/13 09:49:42;;;;;;;7.38;3.17;;;;;;;30.34;99.32;96220.22;5052372;28;20125;-62
2021/08/13 09:52:26;;;;;;;6.70;3.70;;;;;;;30.80;100.00;96212.00;5034709;28;20071;-62
2021/08/13 09:55:08;;;;;;;7.85;3.25;;;;;;;30.86;97.22;96219.66;5034584;28;20057;-61
2021/08/13 09:57:48;;;;;;;6.93;3.42;;;;;;;30.81;98.46;96214.41;5052114;28;20035;-59
2021/08/13 10:00:17;;;;;;;9.75;3.50;;;;;;;30.97;98.14;96214.28;5052744;28;20027;-61
2021/08/13 10:02:45;;;;;;;8.45;3.38;;;;;;;30.91;98.30;96204.69;5052489;28;20024;-61
2021/08/13 10:05:25;;;;;;;8.25;3.25;;;;;;;31.09;97.01;96208.56;5034546;28;20442;-62
2021/08/13 10:07:54;;;;;;;7.45;3.55;;;;;;;31.25;93.53;96215.97;5017971;28;20033;-61
2021/08/13 10:10:41;;;;;;;7.10;3.78;;;;;;;31.58;93.67;96223.59;5063451;28;20053;-62
2021/08/13 10:13:11;;;;;;;8.88;3.63;;;;;;;31.89;91.18;96226.03;5034301;28;20407;-60
2021/08/13 10:15:43;;;;;;;7.55;3.40;;;;;;;32.17;90.60;96224.84;5034199;28;20025;-60
2021/08/13 10:18:14;;;;;;;8.77;4.03;;;;;;;32.06;91.54;96221.94;5010557;28;20020;-62
2021/08/13 10:20:45;;;;;;;10.95;3.80;;;;;;;32.47;88.40;96225.63;5030902;28;20560;-62
2021/08/13 10:23:11;;;;;;;7.23;3.67;;;;;;;32.46;86.31;96231.56;5030973;28;20164;-62
2021/08/13 10:25:38;;;;;;;6.93;4.43;;;;;;;32.71;86.72;96232.63;5048097;28;20479;-62
2021/08/13 10:28:04;;;;;;;6.57;3.70;;;;;;;32.77;86.73;96233.84;5051435;28;20135;-62
2021/08/13 10:30:33;;;;;;;6.72;4.05;;;;;;;32.94;85.92;96240.00;5051928;28;20021;-62
2021/08/13 10:33:07;;;;;;;8.73;4.18;;;;;;;32.86;87.31;96237.16;5051789;28;20035;-62
2021/08/13 10:35:39;;;;;;;8.07;4.18;;;;;;;32.70;87.98;96219.94;5049222;28;20504;-61
2021/08/13 10:38:21;;;;;;;11.82;4.30;;;;;;;32.70;86.69;96225.47;5050583;28;20025;-62
2021/08/13 10:40:47;;;;;;;9.75;3.80;;;;;;;32.80;86.78;96224.78;5014706;28;20101;-62
2021/08/13 10:43:17;;;;;;;6.25;3.70;;;;;;;33.17;86.87;96221.97;5045024;28;20029;-62
2021/08/13 10:45:46;;;;;;;7.85;3.80;;;;;;;32.76;87.60;96226.72;5050786;28;20025;-61
2021/08/13 10:48:20;;;;;;;10.02;4.22;;;;;;;32.54;88.85;96211.81;5052327;28;20379;-58
2021/08/13 10:50:54;;;;;;;9.93;3.97;;;;;;;32.45;89.03;96225.19;5052363;28;20040;-62
2021/08/13 10:53:46;;;;;;;8.63;4.00;;;;;;;32.37;89.48;96218.00;5028117;28;20550;-61
2021/08/13 10:56:13;;;;;;;7.70;3.47;;;;;;;32.57;86.96;96227.72;5027956;28;20032;-62
2021/08/13 10:58:40;;;;;;;5.63;3.40;;;;;;;32.87;88.39;96224.06;5052251;28;20029;-62
2021/08/13 11:01:21;;;;;;;10.63;4.70;;;;;;;32.99;84.58;96232.13;5052280;28;20024;-62
2021/08/13 11:03:54;;;;;;;6.80;3.88;;;;;;;33.55;84.58;96228.28;5052091;28;20037;-61
2021/08/13 11:06:38;;;;;;;7.95;3.75;;;;;;;33.41;82.66;96233.69;5052244;28;20096;-62
2021/08/13 11:09:21;;;;;;;7.68;4.35;;;;;;;33.71;83.53;96225.97;5034156;28;20124;-62
2021/08/13 11:11:56;;;;;;;12.98;4.00;;;;;;;33.88;82.63;96229.31;5025439;28;20057;-62
2021/08/13 11:14:26;;;;;;;7.22;3.85;;;;;;;34.31;80.56;96224.75;5052038;28;20061;-62
2021/08/13 11:16:56;;;;;;;14.13;3.95;;;;;;;34.34;80.53;96220.38;5035602;28;20028;-62
2021/08/13 11:19:24;;;;;;;9.27;4.07;;;;;;;33.88;82.48;96226.53;5072166;28;20023;-61
2021/08/13 11:21:55;;;;;;;12.27;4.68;;;;;;;33.48;80.91;96230.19;5072088;28;20391;-62
2021/08/13 11:24:25;;;;;;;13.10;3.88;;;;;;;33.34;84.57;96216.97;5072054;28;20464;-62
2021/08/13 11:27:07;;;;;;;7.95;3.70;;;;;;;32.84;84.24;96213.75;5072032;28;20544;-62
2021/08/13 11:29:33;;;;;;;12.70;4.30;;;;;;;33.22;84.71;96218.06;5053714;28;20021;-61
2021/08/13 11:32:14;;;;;;;10.00;3.75;;;;;;;33.42;83.52;96218.63;5072097;28;20029;-62
2021/08/13 11:34:51;;;;;;;9.60;3.90;;;;;;;33.38;83.99;96209.50;5071704;28;20106;-62
2021/08/13 11:37:31;;;;;;;11.45;4.50;;;;;;;33.43;82.55;96221.06;5058896;28;20029;-62
2021/08/13 11:40:12;;;;;;;11.63;4.10;;;;;;;33.70;83.02;96221.63;5051681;28;20056;-62
2021/08/13 11:43:23;;;;;;;11.32;3.95;;;;;;;33.46;81.88;96225.03;5051887;28;20100;-62